createdAt,value
2022-10-29T00:01:25.285Z,99167.16
2022-10-29T00:03:52.182Z,99167.38
2022-10-29T00:06:19.069Z,99170.72
2022-10-29T00:08:46.040Z,99171.78
2022-10-29T00:11:16.721Z,99166.31
2022-10-29T00:13:43.703Z,99171.78
2022-10-29T00:16:13.676Z,99167.16
2022-10-29T00:18:40.611Z,99160.84
2022-10-29T00:21:11.134Z,99168.00
2022-10-29T00:23:38.132Z,99168.00
2022-10-29T00:26:05.516Z,99173.47
2022-10-29T00:28:32.593Z,99168.84
2022-10-29T00:31:08.212Z,99159.19
2022-10-29T00:33:35.139Z,99159.19
2022-10-29T00:36:05.513Z,99160.00
2022-10-29T00:38:34.186Z,99161.91
2022-10-29T00:41:01.415Z,99163.81
2022-10-29T00:43:29.140Z,99161.06
2022-10-29T00:45:56.067Z,99158.59
2022-10-29T00:48:25.244Z,99165.13
2022-10-29T00:50:53.727Z,99162.97
2022-10-29T00:53:27.269Z,99157.50
2022-10-29T00:55:54.169Z,99145.72
2022-10-29T00:58:23.348Z,99150.13
2022-10-29T01:00:51.799Z,99142.75
2022-10-29T01:03:20.208Z,99141.09
2022-10-29T01:05:52.706Z,99149.28
2022-10-29T01:08:51.309Z,99144.91
2022-10-29T01:12:23.728Z,99147.66
2022-10-29T01:15:34.504Z,99136.72
2022-10-29T01:18:32.780Z,99133.97
2022-10-29T01:21:50.388Z,99130.63
2022-10-29T01:24:37.948Z,99128.94
2022-10-29T01:27:30.759Z,99126.22
2022-10-29T01:30:11.891Z,99134.41
2022-10-29T01:32:54.760Z,99133.59
2022-10-29T01:35:41.118Z,99134.41
2022-10-29T01:38:31.913Z,99131.69
2022-10-29T01:41:18.108Z,99136.09
2022-10-29T01:44:03.440Z,99124.53
2022-10-29T01:47:02.206Z,99113.84
2022-10-29T01:49:39.118Z,99111.97
2022-10-29T01:52:14.188Z,99111.97
2022-10-29T01:54:46.971Z,99103.75
2022-10-29T01:57:37.774Z,99107.53
2022-10-29T02:00:17.366Z,99120.16
2022-10-29T02:03:13.555Z,99118.25
2022-10-29T02:05:58.889Z,99126.69
2022-10-29T02:09:08.136Z,99123.13
2022-10-29T02:11:49.636Z,99126.69
2022-10-29T02:14:30.786Z,99121.22
2022-10-29T02:17:00.330Z,99113.03
2022-10-29T02:19:34.235Z,99107.53
2022-10-29T02:22:01.988Z,99108.38
2022-10-29T02:24:31.182Z,99098.28
2022-10-29T02:26:59.064Z,99100.41
2022-10-29T02:29:26.961Z,99113.84
2022-10-29T02:31:59.028Z,99099.56
2022-10-29T02:34:26.788Z,99102.31
2022-10-29T02:36:54.196Z,99103.13
2022-10-29T02:39:21.739Z,99090.31
2022-10-29T02:41:50.568Z,99086.16
2022-10-29T02:44:23.888Z,99091.63
2022-10-29T02:46:51.347Z,99093.25
2022-10-29T02:49:19.484Z,99106.94
2022-10-29T02:51:47.242Z,99106.34
2022-10-29T02:54:15.505Z,99104.19
2022-10-29T02:56:43.259Z,99096.84
2022-10-29T02:59:12.690Z,99097.88
2022-10-29T03:01:41.186Z,99098.72
2022-10-29T03:04:09.278Z,99102.56
2022-10-29T03:06:38.613Z,99111.56
2022-10-29T03:09:07.022Z,99108.03
2022-10-29T03:11:35.410Z,99101.47
2022-10-29T03:14:05.947Z,99102.56
2022-10-29T03:16:35.410Z,99092.41
2022-10-29T03:19:02.889Z,99091.63
2022-10-29T03:21:32.161Z,99085.31
2022-10-29T03:24:02.436Z,99073.53
2022-10-29T03:26:31.542Z,99078.16
2022-10-29T03:29:00.422Z,99084.91
2022-10-29T03:31:28.232Z,99099.22
2022-10-29T03:33:57.429Z,99095.63
2022-10-29T03:36:25.818Z,99100.88
2022-10-29T03:38:53.777Z,99096.47
2022-10-29T03:41:21.515Z,99098.38
2022-10-29T03:43:49.444Z,99089.34
2022-10-29T03:46:17.339Z,99103.84
2022-10-29T03:48:45.526Z,99100.28
2022-10-29T03:51:13.604Z,99118.34
2022-10-29T03:53:41.346Z,99103.84
2022-10-29T03:56:10.547Z,99108.47
2022-10-29T03:58:38.478Z,99107.63
2022-10-29T04:01:09.049Z,99101.34
2022-10-29T04:03:38.854Z,99113.94
2022-10-29T04:06:11.773Z,99101.34
2022-10-29T04:08:40.355Z,99096.69
2022-10-29T04:11:13.428Z,99084.91
2022-10-29T04:13:41.596Z,99087.91
2022-10-29T04:16:10.238Z,99099.69
2022-10-29T04:18:38.204Z,99103.47
2022-10-29T04:27:24.787Z,99084.13
2022-10-29T04:29:34.722Z,99096.13
2022-10-29T04:32:02.418Z,99081.59
2022-10-29T04:34:41.113Z,99080.53
2022-10-29T04:37:09.103Z,99094.22
2022-10-29T04:39:36.716Z,99092.53
2022-10-29T04:42:04.640Z,99090.88
2022-10-29T04:44:33.433Z,99097.19
2022-10-29T04:47:06.859Z,99105.38
2022-10-29T04:49:34.589Z,99094.44
2022-10-29T04:52:01.941Z,99088.34
2022-10-29T04:54:35.139Z,99070.06
2022-10-29T04:57:03.234Z,99048.44
2022-10-29T04:59:34.793Z,99050.91
2022-10-29T05:02:02.456Z,99076.34
2022-10-29T05:04:30.628Z,99074.69
2022-10-29T05:07:05.167Z,99075.53
2022-10-29T05:09:45.475Z,99072.78
2022-10-29T05:12:13.001Z,99070.31
2022-10-29T05:14:40.487Z,99077.41
2022-10-29T05:19:35.469Z,99094.28
2022-10-29T05:22:08.458Z,99083.72
2022-10-29T05:24:41.235Z,99095.75
2022-10-29T05:27:13.725Z,99100.38
2022-10-29T05:29:41.372Z,99086.28
2022-10-29T05:32:12.488Z,99097.66
2022-10-29T05:34:44.346Z,99097.22
2022-10-29T05:37:13.344Z,99090.69
2022-10-29T05:39:41.450Z,99094.28
2022-10-29T05:42:09.391Z,99106.91
2022-10-29T05:44:36.833Z,99093.25
2022-10-29T05:47:06.845Z,99090.69
2022-10-29T05:49:35.538Z,99097.00
2022-10-29T05:52:03.385Z,99094.09
2022-10-29T05:54:33.008Z,99084.22
2022-10-29T05:57:00.704Z,99089.69
2022-10-29T05:59:32.655Z,99091.34
2022-10-29T06:02:02.430Z,99084.22
2022-10-29T06:04:35.939Z,99093.44
2022-10-29T06:07:03.706Z,99095.16
2022-10-29T06:09:31.741Z,99094.50
2022-10-29T06:12:00.188Z,99083.34
2022-10-29T06:14:28.084Z,99076.19
2022-10-29T06:16:56.035Z,99096.44
2022-10-29T06:19:23.998Z,99102.69
2022-10-29T06:21:55.174Z,99102.69
2022-10-29T06:24:26.009Z,99112.00
2022-10-29T06:26:56.467Z,99116.38
2022-10-29T06:29:24.236Z,99123.53
2022-10-29T06:31:51.687Z,99115.31
2022-10-29T06:34:19.679Z,99125.41
2022-10-29T06:36:47.350Z,99117.22
2022-10-29T06:39:15.258Z,99137.19
2022-10-29T06:41:43.083Z,99131.72
2022-10-29T06:44:11.002Z,99124.56
2022-10-29T06:46:39.672Z,99131.72
2022-10-29T06:49:07.707Z,99133.63
2022-10-29T06:51:36.796Z,99126.25
2022-10-29T06:54:04.826Z,99131.72
2022-10-29T06:56:34.409Z,99127.31
2022-10-29T06:59:02.823Z,99132.78
2022-10-29T07:01:33.862Z,99128.41
2022-10-29T07:04:03.196Z,99137.19
2022-10-29T07:06:34.718Z,99139.94
2022-10-29T07:09:02.618Z,99150.88
2022-10-29T07:11:30.589Z,99156.34
2022-10-29T07:13:59.201Z,99153.59
2022-10-29T07:16:27.751Z,99149.84
2022-10-29T07:18:56.607Z,99155.31
2022-10-29T07:21:25.089Z,99156.34
2022-10-29T07:23:53.129Z,99161.63
2022-10-29T07:26:20.717Z,99171.50
2022-10-29T07:28:48.620Z,99170.66
2022-10-29T07:31:16.862Z,99178.03
2022-10-29T07:33:44.626Z,99176.13
2022-10-29T07:36:14.609Z,99181.59
2022-10-29T07:38:42.610Z,99182.66
2022-10-29T07:41:10.478Z,99180.53
2022-10-29T07:43:38.608Z,99185.16
2022-10-29T07:46:06.995Z,99190.38
2022-10-29T07:48:37.354Z,99186.00
2022-10-29T07:51:04.979Z,99183.28
2022-10-29T07:53:39.437Z,99191.47
2022-10-29T07:56:07.849Z,99188.75
2022-10-29T07:58:37.281Z,99187.66
2022-10-29T08:01:16.567Z,99189.31
2022-10-29T08:03:45.338Z,99190.63
2022-10-29T08:06:12.827Z,99200.25
2022-10-29T08:08:40.833Z,99196.47
2022-10-29T08:11:09.144Z,99183.28
2022-10-29T08:13:37.416Z,99189.31
2022-10-29T08:16:06.693Z,99192.06
2022-10-29T08:18:33.958Z,99200.03
2022-10-29T08:21:05.554Z,99198.16
2022-10-29T08:23:33.596Z,99192.69
2022-10-29T08:26:02.415Z,99203.38
2022-10-29T08:28:40.116Z,99206.94
2022-10-29T08:31:10.640Z,99197.66
2022-10-29T08:33:39.018Z,99203.13
2022-10-29T08:36:07.262Z,99204.81
2022-10-29T08:38:35.637Z,99207.28
2022-10-29T08:41:11.492Z,99202.66
2022-10-29T08:47:08.660Z,99206.03
2022-10-29T08:49:41.831Z,99204.97
2022-10-29T08:52:24.468Z,99200.06
2022-10-29T08:55:16.337Z,99196.28
2022-10-29T08:57:48.083Z,99192.47
2022-10-29T09:00:19.292Z,99183.22
2022-10-29T09:02:46.419Z,99180.22
2022-10-29T09:05:19.660Z,99176.66
2022-10-29T09:08:02.357Z,99191.78
2022-10-29T09:10:41.780Z,99186.06
2022-10-29T09:13:33.303Z,99191.31
2022-10-29T09:16:18.905Z,99183.94
2022-10-29T09:18:54.589Z,99188.34
2022-10-29T09:21:41.661Z,99183.47
2022-10-29T09:24:17.676Z,99181.56
2022-10-29T09:26:52.640Z,99184.06
2022-10-29T09:29:30.133Z,99187.66
2022-10-29T09:32:03.418Z,99190.13
2022-10-29T09:34:50.011Z,99176.22
2022-10-29T09:37:22.033Z,99179.78
2022-10-29T09:39:49.050Z,99189.69
2022-10-29T09:42:23.382Z,99179.31
2022-10-29T09:44:59.045Z,99175.53
2022-10-29T09:47:39.194Z,99173.63
2022-10-29T09:50:36.375Z,99176.94
2022-10-29T09:53:03.393Z,99172.31
2022-10-29T09:55:40.059Z,99168.50
2022-10-29T09:58:08.095Z,99175.66
2022-10-29T10:00:35.498Z,99166.13
2022-10-29T10:03:15.461Z,99163.38
2022-10-29T10:06:09.195Z,99154.13
2022-10-29T10:09:01.995Z,99161.84
2022-10-29T10:11:44.332Z,99149.84
2022-10-29T10:14:19.337Z,99159.72
2022-10-29T10:16:46.400Z,99148.53
2022-10-29T10:19:31.240Z,99156.50
2022-10-29T10:22:06.053Z,99149.13
2022-10-29T10:24:35.678Z,99142.59
2022-10-29T10:27:31.759Z,99141.53
2022-10-29T10:30:04.557Z,99145.09
2022-10-29T10:32:32.375Z,99152.22
2022-10-29T10:34:59.207Z,99135.00
2022-10-29T10:37:26.073Z,99141.28
2022-10-29T10:39:57.057Z,99132.81
2022-10-29T10:42:28.488Z,99127.34
2022-10-29T10:45:02.602Z,99130.94
2022-10-29T10:47:36.739Z,99126.06
2022-10-29T10:50:20.478Z,99125.22
2022-10-29T10:52:47.934Z,99126.88
2022-10-29T10:55:46.976Z,99131.28
2022-10-29T10:58:19.981Z,99112.94
2022-10-29T11:01:07.327Z,99119.03
2022-10-29T11:03:49.210Z,99111.66
2022-10-29T11:06:23.272Z,99100.44
2022-10-29T11:08:57.006Z,99103.19
2022-10-29T11:11:28.074Z,99100.22
2022-10-29T11:14:03.439Z,99102.72
2022-10-29T11:16:43.651Z,99093.44
2022-10-29T11:19:31.291Z,99098.66
2022-10-29T11:22:22.672Z,99095.94
2022-10-29T11:25:12.879Z,99093.78
2022-10-29T11:27:59.187Z,99089.13
2022-10-29T11:30:29.442Z,99086.16
2022-10-29T11:33:21.040Z,99092.47
2022-10-29T11:36:01.417Z,99089.50
2022-10-29T11:38:43.101Z,99094.72
2022-10-29T11:41:39.091Z,99089.84
2022-10-29T11:44:12.438Z,99100.31
2022-10-29T11:46:48.148Z,99110.22
2022-10-29T11:49:33.300Z,99106.97
2022-10-29T11:52:05.339Z,99102.34
2022-10-29T11:54:44.765Z,99094.75
2022-10-29T11:57:27.671Z,99096.41
2022-10-29T12:00:27.725Z,99097.00
2022-10-29T12:03:00.510Z,99093.22
2022-10-29T12:05:46.269Z,99092.94
2022-10-29T12:08:13.087Z,99080.91
2022-10-29T12:11:09.110Z,99084.28
2022-10-29T12:14:00.628Z,99074.97
2022-10-29T12:16:48.440Z,99065.66
2022-10-29T12:19:31.472Z,99062.09
2022-10-29T12:22:19.420Z,99064.59
2022-10-29T12:25:07.945Z,99070.06
2022-10-29T12:28:04.073Z,99063.75
2022-10-29T12:30:39.570Z,99065.44
2022-10-29T12:33:27.803Z,99069.84
2022-10-29T12:36:20.139Z,99062.47
2022-10-29T12:38:55.829Z,99064.09
2022-10-29T12:41:27.555Z,99059.47
2022-10-29T12:44:10.263Z,99055.09
2022-10-29T12:47:14.252Z,99056.50
2022-10-29T12:49:49.908Z,99057.91
2022-10-29T12:52:22.505Z,99053.03
2022-10-29T12:54:52.951Z,99046.47
2022-10-29T12:57:34.980Z,99055.88
2022-10-29T13:00:23.645Z,99058.13
2022-10-29T13:02:55.121Z,99050.50
2022-10-29T13:05:34.626Z,99053.81
2022-10-29T13:08:04.617Z,99056.09
2022-10-29T13:10:31.479Z,99052.25
2022-10-29T13:13:16.814Z,99051.19
2022-10-29T13:15:50.294Z,99039.16
2022-10-29T13:18:26.841Z,99046.88
2022-10-29T13:20:55.116Z,99043.06
2022-10-29T13:23:25.083Z,99040.09
2022-10-29T13:25:56.652Z,99043.41
2022-10-29T13:28:23.509Z,99044.22
2022-10-29T13:30:53.110Z,99038.75
2022-10-29T13:33:28.819Z,99044.00
2022-10-29T13:35:59.330Z,99042.09
2022-10-29T13:39:04.398Z,99049.22
2022-10-29T13:41:43.418Z,99047.31
2022-10-29T13:44:13.384Z,99044.34
2022-10-29T13:47:03.340Z,99052.56
2022-10-29T13:49:47.560Z,99041.81
2022-10-29T13:52:21.789Z,99033.38
2022-10-29T13:54:51.699Z,99032.53
2022-10-29T13:57:55.464Z,99030.88
2022-10-29T14:00:23.340Z,99026.22
2022-10-29T14:03:33.409Z,99020.72
2022-10-29T14:06:09.018Z,99018.25
2022-10-29T14:08:49.472Z,99014.69
2022-10-29T14:11:35.564Z,99007.28
2022-10-29T14:14:05.571Z,99006.47
2022-10-29T14:16:33.733Z,99005.63
2022-10-29T14:19:21.896Z,99015.75
2022-10-29T14:21:48.775Z,99012.19
2022-10-29T14:24:17.089Z,99014.91
2022-10-29T14:26:45.621Z,99009.66
2022-10-29T14:29:22.600Z,99013.50
2022-10-29T14:32:11.738Z,99018.16
2022-10-29T14:34:38.738Z,99024.72
2022-10-29T14:37:14.139Z,99027.69
2022-10-29T14:39:57.841Z,99031.50
2022-10-29T14:42:45.325Z,99026.00
2022-10-29T14:45:38.531Z,99030.91
2022-10-29T14:48:15.658Z,99028.19
2022-10-29T14:50:50.195Z,99026.50
2022-10-29T14:53:30.423Z,99029.25
2022-10-29T14:56:00.050Z,99030.31
2022-10-29T14:58:34.406Z,99031.41
2022-10-29T15:01:14.623Z,99036.91
2022-10-29T15:03:42.203Z,99040.72
2022-10-29T15:06:27.356Z,99051.06
2022-10-29T15:09:07.732Z,99039.28
2022-10-29T15:11:47.713Z,99042.28
2022-10-29T15:14:53.423Z,99040.59
2022-10-29T15:17:25.199Z,99044.41
2022-10-29T15:20:05.016Z,99038.09
2022-10-29T15:22:38.313Z,99049.31
2022-10-29T15:25:21.861Z,99042.19
2022-10-29T15:27:49.288Z,99043.25
2022-10-29T15:30:20.973Z,99042.41
2022-10-29T15:32:49.066Z,99041.56
2022-10-29T15:35:21.327Z,99041.56
2022-10-29T15:37:48.204Z,99039.94
2022-10-29T15:40:19.389Z,99030.03
2022-10-29T15:42:46.863Z,99022.88
2022-10-29T15:45:15.612Z,99034.91
2022-10-29T15:47:50.981Z,99037.91
2022-10-29T15:50:19.468Z,99031.59
2022-10-29T15:52:54.043Z,99040.88
2022-10-29T15:55:26.873Z,99036.47
2022-10-29T15:57:59.548Z,99039.22
2022-10-29T16:00:26.741Z,99036.72
2022-10-29T16:02:55.719Z,99044.13
2022-10-29T16:05:22.900Z,99044.34
2022-10-29T16:07:49.895Z,99027.09
2022-10-29T16:10:19.743Z,99036.13
2022-10-29T16:12:48.687Z,99026.25
2022-10-29T16:15:18.584Z,99030.91
2022-10-29T16:17:46.495Z,99025.69
2022-10-29T16:20:16.384Z,99029.47
2022-10-29T16:22:43.739Z,99040.44
2022-10-29T16:25:22.000Z,99035.19
2022-10-29T16:27:49.375Z,99037.94
2022-10-29T16:30:16.680Z,99041.75
2022-10-29T16:32:44.971Z,99047.22
2022-10-29T16:35:18.128Z,99046.66
2022-10-29T16:37:45.128Z,99043.91
2022-10-29T16:40:12.362Z,99039.50
2022-10-29T16:42:39.327Z,99037.81
2022-10-29T16:45:10.299Z,99035.09
2022-10-29T16:47:37.434Z,99037.81
2022-10-29T16:50:04.593Z,99047.09
2022-10-29T16:52:32.840Z,99041.63
2022-10-29T16:54:59.839Z,99041.63
2022-10-29T16:57:26.763Z,99047.38
2022-10-29T16:59:53.643Z,99057.50
2022-10-29T17:02:20.580Z,99047.56
2022-10-29T17:04:47.489Z,99042.09
2022-10-29T17:07:14.388Z,99054.13
2022-10-29T17:09:41.339Z,99044.25
2022-10-29T17:12:08.241Z,99063.44
2022-10-29T17:14:35.162Z,99052.69
2022-10-29T17:17:02.179Z,99049.97
2022-10-29T17:19:29.827Z,99040.06
2022-10-29T17:21:58.986Z,99034.81
2022-10-29T17:24:26.735Z,99034.03
2022-10-29T17:26:54.243Z,99040.31
2022-10-29T17:29:22.182Z,99036.75
2022-10-29T17:31:49.258Z,99038.66
2022-10-29T17:34:16.159Z,99035.09
2022-10-29T17:36:44.681Z,99042.47
2022-10-29T17:39:11.580Z,99044.38
2022-10-29T17:41:38.510Z,99046.28
2022-10-29T17:44:05.425Z,99049.84
2022-10-29T17:46:32.437Z,99040.22
2022-10-29T17:48:59.516Z,99035.81
2022-10-29T17:51:26.513Z,99041.28
2022-10-29T17:53:53.396Z,99040.44
2022-10-29T17:56:20.288Z,99047.84
2022-10-29T17:58:47.238Z,99036.88
2022-10-29T18:01:15.241Z,99041.53
2022-10-29T18:03:42.414Z,99037.94
2022-10-29T18:06:11.836Z,99039.84
2022-10-29T18:08:40.938Z,99037.94
2022-10-29T18:11:19.000Z,99043.69
2022-10-29T18:13:47.417Z,99049.97
2022-10-29T18:16:18.592Z,99048.31
2022-10-29T18:19:00.809Z,99059.28
2022-10-29T18:21:28.864Z,99058.44
2022-10-29T18:23:55.736Z,99058.44
2022-10-29T18:26:34.695Z,99057.59
2022-10-29T18:29:10.918Z,99051.53
2022-10-29T18:31:40.311Z,99043.31
2022-10-29T18:34:07.912Z,99047.97
2022-10-29T18:36:39.371Z,99052.63
2022-10-29T18:39:06.697Z,99057.25
2022-10-29T18:41:34.690Z,99055.59
2022-10-29T18:44:01.735Z,99063.78
2022-10-29T18:46:28.617Z,99054.75
2022-10-29T18:48:55.511Z,99061.91
2022-10-29T18:51:25.746Z,99054.75
2022-10-29T18:53:53.749Z,99056.91
2022-10-29T18:56:22.659Z,99051.44
2022-10-29T18:58:49.865Z,99053.06
2022-10-29T19:01:25.118Z,99044.84
2022-10-29T19:03:57.147Z,99036.91
2022-10-29T19:06:26.216Z,99031.44
2022-10-29T19:08:53.160Z,99036.06
2022-10-29T19:11:23.028Z,99020.72
2022-10-29T19:13:54.781Z,99024.50
2022-10-29T19:16:22.341Z,99030.81
2022-10-29T19:18:54.544Z,99029.16
2022-10-29T19:21:21.848Z,99037.38
2022-10-29T19:23:53.241Z,99033.00
2022-10-29T19:26:20.110Z,99036.53
2022-10-29T19:28:47.944Z,99043.09
2022-10-29T19:31:17.652Z,99034.88
2022-10-29T19:33:49.753Z,99034.06
2022-10-29T19:36:17.115Z,99026.69
2022-10-29T19:38:44.040Z,99031.31
2022-10-29T19:41:12.584Z,99025.00
2022-10-29T19:43:40.586Z,99025.00
2022-10-29T19:46:08.962Z,99030.47
2022-10-29T19:48:36.559Z,99044.41
2022-10-29T19:51:03.808Z,99038.09
2022-10-29T19:53:31.333Z,99041.91
2022-10-29T19:55:58.861Z,99041.91
2022-10-29T19:58:27.791Z,99048.19
2022-10-29T20:00:55.689Z,99044.06
2022-10-29T20:03:22.644Z,99041.91
2022-10-29T20:05:49.789Z,99039.41
2022-10-29T20:08:16.757Z,99044.66
2022-10-29T20:10:44.068Z,99035.63
2022-10-29T20:13:11.124Z,99039.41
2022-10-29T20:15:40.865Z,99038.56
2022-10-29T20:18:07.729Z,99040.25
2022-10-29T20:20:34.967Z,99045.94
2022-10-29T20:23:01.962Z,99040.69
2022-10-29T20:25:29.080Z,99053.31
2022-10-29T20:27:56.054Z,99055.22
2022-10-29T20:30:22.922Z,99057.97
2022-10-29T20:32:50.531Z,99062.59
2022-10-29T20:35:17.839Z,99057.13
2022-10-29T20:37:44.707Z,99057.13
2022-10-29T20:40:12.658Z,99062.88
2022-10-29T20:42:39.712Z,99059.06
2022-10-29T20:45:07.284Z,99055.50
2022-10-29T20:47:34.203Z,99053.81
2022-10-29T20:50:01.039Z,99065.59
2022-10-29T20:52:28.054Z,99060.13
2022-10-29T20:54:54.928Z,99053.22
2022-10-29T20:57:21.765Z,99051.06
2022-10-29T20:59:48.646Z,99053.81
2022-10-29T21:02:15.687Z,99052.97
2022-10-29T21:04:42.670Z,99052.13
2022-10-29T21:07:09.601Z,99050.47
2022-10-29T21:09:36.444Z,99050.47
2022-10-29T21:12:03.413Z,99047.72
2022-10-29T21:14:30.265Z,99044.16
2022-10-29T21:16:57.138Z,99036.78
2022-10-29T21:19:24.947Z,99025.00
2022-10-29T21:21:51.896Z,99030.72
2022-10-29T21:24:20.458Z,99032.63
2022-10-29T21:26:47.310Z,99027.16
2022-10-29T21:29:14.191Z,99030.72
2022-10-29T21:31:41.070Z,99022.53
2022-10-29T21:34:07.963Z,99017.06
2022-10-29T21:36:34.801Z,99022.53
2022-10-29T21:39:01.706Z,99026.31
2022-10-29T21:41:28.650Z,99013.69
2022-10-29T21:43:55.522Z,99013.69
2022-10-29T21:46:22.422Z,99002.75
2022-10-29T21:48:49.277Z,98999.19
2022-10-29T21:51:17.509Z,98988.25
2022-10-29T21:53:44.586Z,98976.47
2022-10-29T21:56:13.598Z,98970.97
2022-10-29T21:58:40.661Z,98968.25
2022-10-29T22:01:10.717Z,98965.78
2022-10-29T22:03:41.578Z,98960.03
2022-10-29T22:06:15.852Z,98977.56
2022-10-29T22:08:43.239Z,98976.72
2022-10-29T22:13:55.546Z,98984.09
2022-10-29T22:16:23.025Z,98987.66
2022-10-29T22:21:34.292Z,98977.78
2022-10-29T22:26:45.013Z,98984.09
2022-10-29T22:31:55.671Z,98987.06
2022-10-29T22:34:22.492Z,98984.09
2022-10-29T22:36:52.447Z,98987.06
2022-10-29T22:39:19.370Z,98991.69
2022-10-29T22:41:46.229Z,98974.44
2022-10-29T22:44:13.086Z,98978.00
2022-10-29T22:46:39.969Z,98963.50
2022-10-29T22:49:07.487Z,98959.13
2022-10-29T22:51:35.611Z,98959.69
2022-10-29T22:54:02.836Z,98961.84
2022-10-29T22:56:35.667Z,98965.44
2022-10-29T22:59:03.739Z,98956.38
2022-10-29T23:01:36.267Z,98945.44
2022-10-29T23:04:05.865Z,98955.53
2022-10-29T23:06:32.965Z,98961.84
2022-10-29T23:08:59.864Z,98961.03
2022-10-29T23:11:29.789Z,98961.03
2022-10-29T23:13:59.094Z,98963.16
2022-10-29T23:16:28.725Z,98953.88
2022-10-29T23:18:58.105Z,98973.88
2022-10-29T23:21:24.953Z,98966.72
2022-10-29T23:23:51.909Z,98968.63
2022-10-29T23:26:20.600Z,98959.34
2022-10-29T23:28:49.188Z,98962.31
2022-10-29T23:31:19.018Z,98979.56
2022-10-29T23:33:48.682Z,98966.72
2022-10-29T23:36:17.180Z,98960.41
2022-10-29T23:38:44.991Z,98947.78
2022-10-29T23:41:12.576Z,98953.03
2022-10-29T23:43:39.554Z,98942.31
2022-10-29T23:46:06.902Z,98936.03
2022-10-29T23:48:33.767Z,98922.38
2022-10-29T23:51:00.655Z,98927.00
2022-10-29T23:53:28.024Z,98933.31
2022-10-29T23:55:54.926Z,98936.03
2022-10-29T23:58:21.779Z,98947.00
